Time;durP1;ratioP1;P1;durP2;ratioP2;P2;SDS_P1;SDS_P2;PMS_P1;PMS_P2;Temp;Humidity;BMP_temperature;BMP_pressure;BME280_temperature;BME280_humidity;BME280_pressure;Samples;Min_cycle;Max_cycle;Signal;HPM_P1;HPM_P2
2022/04/21 00:00:04;;;;;;;29.42;17.50;;;13.50;70.10;;;;;;5066184;28;20049;-87
2022/04/21 00:02:30;;;;;;;29.80;16.52;;;13.60;69.90;;;;;;5066086;28;20119;-87
2022/04/21 00:04:59;;;;;;;34.30;19.13;;;13.70;69.40;;;;;;5080088;28;20028;-88
2022/04/21 00:07:25;;;;;;;30.83;17.58;;;13.70;69.30;;;;;;5078195;28;20526;-88
2022/04/21 00:09:51;;;;;;;30.15;17.10;;;13.80;68.90;;;;;;5071184;28;20272;-87
2022/04/21 00:12:16;;;;;;;30.73;15.75;;;13.90;68.60;;;;;;5059975;28;20029;-86
2022/04/21 00:14:42;;;;;;;27.67;17.95;;;13.90;68.40;;;;;;5057959;28;20037;-88
2022/04/21 00:17:08;;;;;;;34.95;18.70;;;13.80;68.70;;;;;;5060181;28;20025;-87
2022/04/21 00:19:35;;;;;;;29.80;15.48;;;13.80;68.40;;;;;;5056620;28;20044;-87
2022/04/21 00:24:47;;;;;;;34.72;17.52;;;13.80;68.80;;;;;;5057844;28;20396;-87
2022/04/21 00:27:20;;;;;;;31.30;16.42;;;13.80;69.00;;;;;;5058126;28;20025;-87
2022/04/21 00:29:46;;;;;;;40.92;20.02;;;13.70;69.50;;;;;;5057526;28;20033;-88
2022/04/21 00:32:12;;;;;;;36.22;18.23;;;13.70;69.60;;;;;;5057663;28;21359;-87
2022/04/21 00:34:38;;;;;;;32.45;18.02;;;13.70;69.40;;;;;;5059933;28;20090;-87
2022/04/21 00:37:04;;;;;;;37.70;17.85;;;13.70;69.20;;;;;;5057630;28;20100;-87
2022/04/21 00:39:31;;;;;;;34.40;18.27;;;13.80;68.80;;;;;;5058685;28;20074;-87
2022/04/21 00:42:02;;;;;;;28.92;17.20;;;13.80;68.50;;;;;;5056111;28;20111;-87
2022/04/21 00:44:33;;;;;;;34.30;17.90;;;13.80;68.80;;;;;;5056893;28;20025;-86
2022/04/21 00:47:03;;;;;;;37.90;18.88;;;13.70;69.10;;;;;;5060400;28;20028;-87
2022/04/21 00:49:30;;;;;;;34.45;17.75;;;13.70;69.30;;;;;;5077600;28;20029;-87
2022/04/21 00:51:58;;;;;;;40.30;20.00;;;13.50;69.80;;;;;;5079339;28;20050;-87
2022/04/21 00:54:24;;;;;;;38.08;18.52;;;13.50;70.10;;;;;;5077044;28;20100;-86
2022/04/21 00:56:50;;;;;;;39.65;19.80;;;13.40;70.90;;;;;;5062487;28;20067;-88
2022/04/21 00:59:16;;;;;;;34.60;17.20;;;13.30;71.40;;;;;;5061200;28;20501;-87
2022/04/21 01:04:28;;;;;;;36.42;20.63;;;13.20;71.70;;;;;;5057206;28;20043;-87
2022/04/21 01:07:17;;;;;;;36.90;20.23;;;13.40;71.40;;;;;;5057078;28;20056;-87
2022/04/21 01:09:43;;;;;;;38.55;19.25;;;13.30;71.50;;;;;;5058020;28;20104;-86
2022/04/21 01:12:09;;;;;;;31.67;15.90;;;13.20;71.80;;;;;;5056851;28;20052;-87
2022/04/21 01:14:38;;;;;;;37.95;19.98;;;13.40;71.40;;;;;;5059214;28;20095;-86
2022/04/21 01:17:09;;;;;;;37.57;19.33;;;13.40;71.10;;;;;;5056794;28;20100;-87
2022/04/21 01:19:34;;;;;;;;;;;13.40;71.40;;;;;;5057536;28;20089;-87
2022/04/21 01:22:00;;;;;;;35.30;19.23;;;13.30;71.90;;;;;;5056835;28;19948;-86
2022/04/21 01:24:28;;;;;;;31.98;16.63;;;13.20;72.30;;;;;;5056432;28;20028;-85
2022/04/21 01:26:55;;;;;;;31.40;18.48;;;13.00;72.80;;;;;;5055777;28;20055;-87
2022/04/21 01:29:21;;;;;;;35.50;19.85;;;13.00;73.00;;;;;;5056961;28;20032;-87
2022/04/21 01:31:46;;;;;;;36.95;19.40;;;13.10;72.90;;;;;;5058725;28;20033;-87
2022/04/21 01:34:12;;;;;;;42.33;19.65;;;13.00;73.00;;;;;;5055150;28;20111;-86
2022/04/21 01:41:08;;;;;;;36.25;21.25;;;12.80;74.10;;;;;;5057881;28;20090;-87
2022/04/21 01:42:15;;;;;;;30.10;18.77;;;13.00;73.50;;;;;;5078388;28;20561;-87
2022/04/21 01:44:41;;;;;;;36.47;20.45;;;13.10;72.80;;;;;;5057398;28;20108;-87
2022/04/21 01:47:07;;;;;;;37.83;21.20;;;13.20;72.60;;;;;;5060336;28;20062;-87
2022/04/21 01:49:33;;;;;;;41.28;21.60;;;13.20;72.30;;;;;;5077071;28;20028;-86
2022/04/21 01:51:58;;;;;;;37.90;22.38;;;13.20;72.20;;;;;;5076122;28;20028;-87
2022/04/21 01:54:24;;;;;;;34.30;20.58;;;13.20;72.10;;;;;;5077815;28;20048;-87
2022/04/21 01:56:49;;;;;;;35.58;20.38;;;13.20;72.30;;;;;;5066951;28;20048;-86
2022/04/21 01:59:15;;;;;;;42.15;20.85;;;13.20;72.10;;;;;;5061805;28;20048;-86
2022/04/21 02:01:41;;;;;;;37.50;20.88;;;13.30;71.80;;;;;;5070429;28;20064;-86
2022/04/21 02:04:07;;;;;;;45.50;22.48;;;13.30;71.60;;;;;;5056988;28;20029;-86
2022/04/21 02:06:32;;;;;;;41.13;21.35;;;13.30;71.50;;;;;;5056183;28;20033;-87
2022/04/21 02:08:58;;;;;;;41.47;22.13;;;13.30;71.40;;;;;;5075289;28;20025;-87
2022/04/21 02:11:24;;;;;;;42.88;21.15;;;13.30;71.20;;;;;;5077499;28;20028;-87
2022/04/21 02:13:51;;;;;;;36.70;21.27;;;13.30;71.70;;;;;;5072818;28;20029;-87
2022/04/21 02:16:17;;;;;;;38.47;19.75;;;13.20;72.00;;;;;;5057680;28;20029;-86
2022/04/21 02:18:42;;;;;;;40.55;21.92;;;13.20;71.90;;;;;;5055749;28;20040;-87
2022/04/21 02:21:10;;;;;;;39.10;20.98;;;13.20;72.10;;;;;;5071589;28;20025;-87
2022/04/21 02:23:36;;;;;;;39.38;22.13;;;13.10;72.10;;;;;;5056772;28;20492;-87
2022/04/21 02:26:02;;;;;;;40.45;21.42;;;13.10;72.50;;;;;;5054092;28;20090;-87
2022/04/21 02:28:28;;;;;;;39.63;20.45;;;12.90;73.20;;;;;;5056272;28;20029;-86
2022/04/21 02:30:54;;;;;;;40.95;22.52;;;13.00;72.90;;;;;;5054107;28;20033;-87
2022/04/21 02:33:20;;;;;;;37.75;21.85;;;13.00;73.00;;;;;;5057420;28;20078;-87
2022/04/21 02:35:46;;;;;;;35.97;20.65;;;13.00;72.90;;;;;;5055437;28;20499;-87
2022/04/21 02:38:19;;;;;;;42.08;21.80;;;13.10;72.70;;;;;;5056276;28;20068;-86
2022/04/21 02:40:46;;;;;;;36.17;21.15;;;13.00;72.80;;;;;;5054937;28;20059;-87
2022/04/21 02:43:11;;;;;;;39.70;21.80;;;13.10;72.50;;;;;;5055473;28;20044;-87
2022/04/21 02:45:38;;;;;;;40.03;23.00;;;13.00;72.90;;;;;;5075339;28;20028;-86
2022/04/21 02:48:05;;;;;;;43.05;20.25;;;13.00;73.10;;;;;;5075200;28;20021;-86
2022/04/21 02:50:31;;;;;;;44.83;23.98;;;13.00;72.90;;;;;;5064536;28;20064;-85
2022/04/21 02:52:58;;;;;;;45.58;22.25;;;13.00;72.90;;;;;;5053711;28;20029;-86
2022/04/21 02:58:09;;;;;;;43.92;21.27;;;13.10;72.40;;;;;;5055454;28;20445;-86
2022/04/21 03:00:35;;;;;;;41.35;21.70;;;13.10;72.70;;;;;;5054864;28;20060;-85
2022/04/21 03:03:01;;;;;;;41.90;21.70;;;13.00;73.10;;;;;;5057023;28;20033;-85
2022/04/21 03:05:27;;;;;;;37.67;20.80;;;13.00;73.00;;;;;;5055029;28;20032;-86
2022/04/21 03:07:54;;;;;;;37.75;21.75;;;13.00;73.00;;;;;;5057319;28;20029;-85
2022/04/21 03:10:20;;;;;;;38.83;19.45;;;12.90;73.20;;;;;;5053698;28;20025;-86
2022/04/21 03:12:46;;;;;;;39.03;22.55;;;13.00;73.10;;;;;;5056912;28;20399;-86
2022/04/21 03:15:12;;;;;;;37.63;19.20;;;13.00;73.10;;;;;;5054994;28;20186;-86
2022/04/21 03:17:39;;;;;;;44.20;23.27;;;13.00;73.10;;;;;;5055946;28;20502;-86
2022/04/21 03:20:05;;;;;;;41.63;21.92;;;13.10;72.80;;;;;;5059444;28;20367;-86
2022/04/21 03:25:15;;;;;;;34.92;20.63;;;13.10;72.60;;;;;;5075635;28;20035;-85
2022/04/21 03:27:43;;;;;;;45.63;23.83;;;13.10;72.60;;;;;;5079177;28;20470;-85
2022/04/21 03:30:09;;;;;;;42.15;20.08;;;13.10;72.40;;;;;;5079345;28;20027;-86
2022/04/21 03:32:39;;;;;;;42.33;21.98;;;13.20;72.30;;;;;;5071759;28;20467;-86
2022/04/21 03:35:07;;;;;;;44.15;23.83;;;13.10;72.80;;;;;;5059072;28;20021;-85
2022/04/21 03:37:33;;;;;;;41.05;21.83;;;13.00;73.50;;;;;;5058284;28;20037;-86
2022/04/21 03:39:59;;;;;;;43.95;22.92;;;13.00;73.50;;;;;;5057262;28;20028;-86
2022/04/21 03:42:31;;;;;;;51.00;22.73;;;12.90;73.70;;;;;;5059506;28;20037;-85
2022/04/21 03:44:58;;;;;;;46.58;22.60;;;12.80;74.20;;;;;;5058710;28;20055;-86
2022/04/21 03:47:24;;;;;;;48.13;22.92;;;12.90;73.90;;;;;;5065507;28;20028;-86
2022/04/21 03:49:50;;;;;;;43.65;23.80;;;13.00;73.70;;;;;;5078014;28;20035;-85
2022/04/21 03:52:18;;;;;;;50.15;25.23;;;13.00;73.10;;;;;;5060138;28;20051;-86
2022/04/21 03:54:43;;;;;;;45.88;25.02;;;13.00;72.80;;;;;;5059042;28;20017;-86
2022/04/21 03:57:09;;;;;;;43.75;23.70;;;13.10;72.80;;;;;;5056999;28;20033;-86
2022/04/21 03:59:36;;;;;;;42.55;21.42;;;13.10;72.90;;;;;;5067215;28;20077;-86
2022/04/21 04:02:02;;;;;;;42.45;21.85;;;13.10;73.00;;;;;;5076999;28;20068;-86
2022/04/21 04:04:29;;;;;;;45.35;21.60;;;13.00;73.40;;;;;;5079625;28;20044;-85
2022/04/21 04:12:23;;;;;;;45.90;23.67;;;12.80;74.40;;;;;;5078068;28;20035;-85
2022/04/21 04:14:56;;;;;;;46.75;22.30;;;12.70;75.10;;;;;;5078056;28;20020;-86
2022/04/21 04:17:21;;;;;;;43.28;23.38;;;12.60;75.30;;;;;;5074269;28;20040;-86
2022/04/21 04:19:47;;;;;;;56.33;24.30;;;12.60;75.30;;;;;;5058007;28;20021;-85
2022/04/21 04:22:14;;;;;;;46.50;23.83;;;12.50;75.80;;;;;;5059613;28;20025;-86
2022/04/21 04:24:40;;;;;;;49.05;22.50;;;12.50;76.10;;;;;;5057748;28;20897;-85
2022/04/21 04:27:06;;;;;;;45.95;23.67;;;12.50;76.20;;;;;;5059004;28;20021;-85
2022/04/21 04:29:32;;;;;;;41.65;21.95;;;12.50;76.30;;;;;;5057068;28;20047;-86
2022/04/21 04:32:00;;;;;;;48.75;23.90;;;12.50;76.00;;;;;;5072669;28;20032;-85
2022/04/21 04:34:26;;;;;;;47.45;22.95;;;12.50;76.30;;;;;;5079023;28;20059;-85
2022/04/21 04:36:52;;;;;;;47.40;24.23;;;12.50;76.30;;;;;;5077786;28;20017;-86
2022/04/21 04:39:18;;;;;;;42.85;22.52;;;12.40;76.70;;;;;;5078121;28;20083;-85
2022/04/21 04:44:28;;;;;;;42.25;21.45;;;12.50;76.40;;;;;;5065578;28;20097;-86
2022/04/21 04:46:55;;;;;;;46.33;24.58;;;12.60;76.00;;;;;;5059183;28;20063;-86
2022/04/21 04:49:21;;;;;;;42.63;22.92;;;12.50;76.10;;;;;;5077900;28;20032;-88
2022/04/21 04:51:47;;;;;;;45.97;22.95;;;12.50;75.90;;;;;;5076158;28;20027;-85
2022/04/21 04:54:14;;;;;;;43.30;22.63;;;12.60;75.90;;;;;;5075000;28;20096;-84
2022/04/21 04:56:42;;;;;;;40.92;22.02;;;12.60;75.90;;;;;;5075476;28;20082;-85
2022/04/21 04:59:08;;;;;;;47.92;24.23;;;12.40;76.40;;;;;;5075771;28;20017;-80
2022/04/21 05:01:41;;;;;;;48.08;24.38;;;12.50;76.10;;;;;;5059485;28;20533;-86
2022/04/21 05:04:18;;;;;;;48.63;24.27;;;12.50;76.20;;;;;;5066720;28;20025;-84
2022/04/21 05:06:48;;;;;;;50.47;23.98;;;12.40;76.60;;;;;;5077086;28;20074;-86
2022/04/21 05:09:24;;;;;;;46.58;26.27;;;12.40;76.90;;;;;;5077177;28;20524;-83
2022/04/21 05:12:23;;;;;;;;;;;;;;;;;;;;;
2022/04/21 05:14:51;;;;;;;57.22;25.15;;;12.30;77.50;;;;;;5058797;28;20025;-79
2022/04/21 05:17:17;;;;;;;46.55;22.60;;;12.20;77.80;;;;;;5070855;28;20039;-84
2022/04/21 05:19:43;;;;;;;46.22;22.98;;;12.30;77.20;;;;;;5066733;28;20131;-84
2022/04/21 05:22:12;;;;;;;50.30;24.27;;;12.30;77.10;;;;;;5075476;28;20028;-84
2022/04/21 05:24:39;;;;;;;50.97;24.73;;;12.50;76.50;;;;;;5073149;28;20111;-86
2022/04/21 05:27:05;;;;;;;52.35;25.40;;;12.50;76.20;;;;;;5073041;28;20448;-84
2022/04/21 05:32:18;;;;;;;41.45;22.42;;;12.40;76.70;;;;;;5056654;28;20144;-84
2022/04/21 05:34:44;;;;;;;52.25;24.77;;;12.30;77.10;;;;;;5056601;28;20075;-83
2022/04/21 05:37:11;;;;;;;55.20;24.67;;;12.30;77.10;;;;;;5063200;28;20406;-85
2022/04/21 05:39:37;;;;;;;58.20;25.35;;;12.20;77.80;;;;;;5059822;28;20033;-83
2022/04/21 05:42:06;;;;;;;42.60;20.13;;;12.10;78.10;;;;;;5057569;28;20028;-84
2022/04/21 05:44:32;;;;;;;43.67;21.80;;;12.20;78.00;;;;;;5083832;28;20040;-85
2022/04/21 05:46:58;;;;;;;52.67;25.83;;;12.30;77.40;;;;;;5076729;28;20045;-83
2022/04/21 05:49:24;;;;;;;56.13;27.30;;;12.30;77.60;;;;;;5072542;28;20079;-83
2022/04/21 05:51:52;;;;;;;51.38;21.88;;;12.30;77.50;;;;;;5077282;28;20031;-84
2022/04/21 05:54:18;;;;;;;57.20;23.58;;;12.20;77.80;;;;;;5082259;28;20077;-84
2022/04/21 05:56:44;;;;;;;51.58;25.38;;;12.30;78.00;;;;;;5084368;28;20020;-83
2022/04/21 05:59:10;;;;;;;48.65;21.73;;;12.20;78.30;;;;;;5083966;28;20466;-84
2022/04/21 06:01:36;;;;;;;45.22;24.60;;;12.30;77.80;;;;;;5085355;28;20134;-84
2022/04/21 06:04:02;;;;;;;52.70;25.83;;;12.50;77.40;;;;;;5083460;28;20111;-84
2022/04/21 06:06:28;;;;;;;51.60;22.85;;;12.50;77.20;;;;;;5084849;28;20028;-83
2022/04/21 06:08:53;;;;;;;42.47;21.42;;;12.50;77.10;;;;;;5083861;28;20126;-85
2022/04/21 06:11:19;;;;;;;47.85;23.75;;;12.50;77.00;;;;;;5080505;28;20020;-83
2022/04/21 06:13:45;;;;;;;47.83;22.05;;;12.60;76.90;;;;;;5087874;28;20020;-84
2022/04/21 06:16:11;;;;;;;41.15;22.83;;;12.60;77.20;;;;;;5081550;28;20564;-84
2022/04/21 06:18:37;;;;;;;46.78;22.90;;;12.70;76.90;;;;;;5073525;28;20044;-84
2022/04/21 06:21:05;;;;;;;47.22;22.27;;;12.70;76.70;;;;;;5085088;28;20438;-90
2022/04/21 06:23:31;;;;;;;50.40;24.50;;;12.80;76.40;;;;;;5082643;28;20039;-89
2022/04/21 06:25:59;;;;;;;48.38;22.75;;;12.70;76.80;;;;;;5081693;28;20036;-87
2022/04/21 06:28:25;;;;;;;45.00;21.27;;;12.70;77.00;;;;;;5083252;28;20028;-86
2022/04/21 06:30:51;;;;;;;43.10;21.65;;;12.80;76.60;;;;;;5086645;28;20066;-85
2022/04/21 06:33:17;;;;;;;52.00;23.40;;;12.90;76.00;;;;;;5084972;28;20016;-86
2022/04/21 06:35:44;;;;;;;50.28;22.70;;;13.00;75.60;;;;;;5083550;28;20035;-88
2022/04/21 06:38:10;;;;;;;53.58;23.65;;;13.20;75.20;;;;;;5086425;28;20016;-85
2022/04/21 06:40:37;;;;;;;46.80;22.17;;;13.20;75.40;;;;;;5075821;28;20037;-86
2022/04/21 06:48:01;;;;;;;44.60;22.08;;;13.30;75.10;;;;;;5073795;28;20024;-85
2022/04/21 06:48:33;;;;;;;43.58;23.27;;;13.60;74.20;;;;;;5073284;28;20056;-84
2022/04/21 06:50:59;;;;;;;45.17;22.05;;;13.70;74.10;;;;;;5075701;28;20021;-87
2022/04/21 06:53:24;;;;;;;51.95;22.25;;;13.70;74.00;;;;;;5061771;28;20036;-86
2022/04/21 06:55:50;;;;;;;52.67;25.17;;;13.80;73.50;;;;;;5055180;28;20025;-80
2022/04/21 06:58:16;;;;;;;51.38;22.00;;;13.90;73.50;;;;;;5055178;28;20036;-81
2022/04/21 07:00:41;;;;;;;54.28;24.23;;;13.80;73.60;;;;;;5070988;28;20075;-86
